Fort Myers, FL

6:32 PM EDT on June 28, 2017 (GMT -0400)
Beckler Riverside | | Change Station

Elev 5 ft 26.62 °N, 81.89 °W | Updated 8 seconds ago

Heavy Thunderstorms and Rain
Heavy Thunderstorm Rain Mist
81.3 °F
Feels Like 89 °F
N
5.1
Wind Variable Wind from SW
Gusts 7.4 mph

Today
High -- | Low -- °F
--% Chance of Precip.
Yesterday
High -- | Low -- °F
Precip. -- in
Pressure 30.01 in
Visibility 1.5 miles
Clouds Few 1000 ft
Scattered Clouds 1900 ft
Overcast 3600 ft
Heat Index 89 °F
Dew Point 77 °F
Humidity 87%
Rainfall 0.00 in
Snow Depth Not available.
6:36 AM 8:24 PM
Waxing Crescent, 29% visible
SPECI KFMY 282221Z 11020G28KT 1 1/2SM +TSRA BR FEW010 SCT019 OVC036 26/25 A3001 RMK AO2 PK WND 09028/2217 WSHFT 2156 LTG DSNT ALQDS RAB15 TSB2156 P0004 T02560250
Pressure 30.01 in
Visibility 1.5 miles
Clouds Few 1000 ft
Scattered Clouds 1900 ft
Overcast 3600 ft
Heat Index 89 °F
Dew Point 77 °F
Humidity 87%
Rainfall 0.00 in
Snow Depth Not available.
6:36 AM 8:24 PM
Waxing Crescent, 29% visible
SPECI KFMY 282221Z 11020G28KT 1 1/2SM +TSRA BR FEW010 SCT019 OVC036 26/25 A3001 RMK AO2 PK WND 09028/2217 WSHFT 2156 LTG DSNT ALQDS RAB15 TSB2156 P0004 T02560250

Get Severe Weather Alerts

Thanks for signing up!

Be on the lookout for a verification email in your inbox.

You'll start receiving the daily forecast at 6 AM.

×

10-Day Weather Forecast

Almanac

Astronomy

Jun. 28, 2017 Rise Set
Actual Time
Civil Twilight
Nautical Twilight
Astronomical Twilight
Moon
Length of Visible Light
Length of Day
Tomorrow will be .
, % of the Moon is Illuminated

Today's Extremes

State Highs State Lows

Community

WunderPhotos

Category 6

Welcome to Category 6. This is the collective home for Weather Underground's featured writeups by Dr. Jeff Masters (right), Bob Henson (left), Chris Burt, and other regular contributors.

Nearby

Air Quality

  Air Quality AQ Index Pollutant
Not available.

Snow Depth

Station Depth Elevation

Earthquake Activity

City Distance Mag. Time & Date
Minimum magnitude displayed is 2.5.

Coastal Water Temperatures

Place Temperature

Stations

Nearby Weather Stations

Station Location Temp. Windchill Dew Point Humidity Wind Precip. Elev Updated Type
                   

Watches & Warnings

There are currently no watches in effect.